sensor_id;sensor_type;location;lat;lon;timestamp;temperature;humidity
9975;DHT22;5028;50.974;4.968;2023-09-19T00:00:47;15.00;99.90
9975;DHT22;5028;50.974;4.968;2023-09-19T00:03:16;15.00;99.90
9975;DHT22;5028;50.974;4.968;2023-09-19T00:05:45;15.00;99.90
9975;DHT22;5028;50.974;4.968;2023-09-19T00:08:15;15.10;99.90
9975;DHT22;5028;50.974;4.968;2023-09-19T00:10:43;15.10;99.90
9975;DHT22;5028;50.974;4.968;2023-09-19T00:13:14;15.00;99.90
9975;DHT22;5028;50.974;4.968;2023-09-19T00:15:44;15.10;99.90
9975;DHT22;5028;50.974;4.968;2023-09-19T00:18:17;15.00;99.90
9975;DHT22;5028;50.974;4.968;2023-09-19T00:20:49;15.00;99.90
9975;DHT22;5028;50.974;4.968;2023-09-19T00:23:19;15.00;99.90
9975;DHT22;5028;50.974;4.968;2023-09-19T00:25:48;15.00;99.90
9975;DHT22;5028;50.974;4.968;2023-09-19T00:28:19;15.00;99.90
9975;DHT22;5028;50.974;4.968;2023-09-19T00:30:48;15.00;99.90
9975;DHT22;5028;50.974;4.968;2023-09-19T00:33:19;15.00;99.90
9975;DHT22;5028;50.974;4.968;2023-09-19T00:35:48;15.00;99.90
9975;DHT22;5028;50.974;4.968;2023-09-19T00:38:17;14.90;99.90
9975;DHT22;5028;50.974;4.968;2023-09-19T00:40:48;14.90;99.90
9975;DHT22;5028;50.974;4.968;2023-09-19T00:43:20;14.90;99.90
9975;DHT22;5028;50.974;4.968;2023-09-19T00:45:52;15.00;99.90
9975;DHT22;5028;50.974;4.968;2023-09-19T00:48:22;14.90;99.90
9975;DHT22;5028;50.974;4.968;2023-09-19T00:50:53;14.90;99.90
9975;DHT22;5028;50.974;4.968;2023-09-19T00:53:22;14.90;99.90
9975;DHT22;5028;50.974;4.968;2023-09-19T00:55:52;14.90;99.90
9975;DHT22;5028;50.974;4.968;2023-09-19T00:58:25;14.90;99.90
9975;DHT22;5028;50.974;4.968;2023-09-19T01:00:59;14.90;99.90
9975;DHT22;5028;50.974;4.968;2023-09-19T01:03:28;14.90;99.90
9975;DHT22;5028;50.974;4.968;2023-09-19T01:05:59;14.90;99.90
9975;DHT22;5028;50.974;4.968;2023-09-19T01:08:29;14.90;99.90
9975;DHT22;5028;50.974;4.968;2023-09-19T01:11:03;14.90;99.90
9975;DHT22;5028;50.974;4.968;2023-09-19T01:13:48;14.90;99.90
9975;DHT22;5028;50.974;4.968;2023-09-19T01:16:23;14.90;99.90
9975;DHT22;5028;50.974;4.968;2023-09-19T01:19:01;14.90;99.90
9975;DHT22;5028;50.974;4.968;2023-09-19T01:21:42;14.80;99.90
9975;DHT22;5028;50.974;4.968;2023-09-19T01:24:38;14.80;99.90
9975;DHT22;5028;50.974;4.968;2023-09-19T01:27:33;14.80;99.90
9975;DHT22;5028;50.974;4.968;2023-09-19T01:30:09;14.80;99.90
9975;DHT22;5028;50.974;4.968;2023-09-19T01:32:39;14.80;99.90
9975;DHT22;5028;50.974;4.968;2023-09-19T01:35:08;14.80;99.90
9975;DHT22;5028;50.974;4.968;2023-09-19T01:37:40;14.70;99.90
9975;DHT22;5028;50.974;4.968;2023-09-19T01:40:12;14.70;99.90
9975;DHT22;5028;50.974;4.968;2023-09-19T01:42:48;14.70;99.90
9975;DHT22;5028;50.974;4.968;2023-09-19T01:45:26;14.70;99.90
9975;DHT22;5028;50.974;4.968;2023-09-19T01:47:56;14.70;99.90
9975;DHT22;5028;50.974;4.968;2023-09-19T01:50:31;14.60;99.90
9975;DHT22;5028;50.974;4.968;2023-09-19T01:53:06;14.60;99.90
9975;DHT22;5028;50.974;4.968;2023-09-19T01:55:39;14.60;99.90
9975;DHT22;5028;50.974;4.968;2023-09-19T01:58:16;14.60;99.90
9975;DHT22;5028;50.974;4.968;2023-09-19T02:00:49;14.50;99.90
9975;DHT22;5028;50.974;4.968;2023-09-19T02:03:20;14.50;99.90
9975;DHT22;5028;50.974;4.968;2023-09-19T02:05:50;14.50;99.90
9975;DHT22;5028;50.974;4.968;2023-09-19T02:08:22;14.40;99.90
9975;DHT22;5028;50.974;4.968;2023-09-19T02:10:52;14.50;99.90
9975;DHT22;5028;50.974;4.968;2023-09-19T02:13:22;14.50;99.90
9975;DHT22;5028;50.974;4.968;2023-09-19T02:15:55;14.50;99.90
9975;DHT22;5028;50.974;4.968;2023-09-19T02:18:24;14.40;99.90
9975;DHT22;5028;50.974;4.968;2023-09-19T02:20:53;14.40;99.90
9975;DHT22;5028;50.974;4.968;2023-09-19T02:23:23;14.40;99.90
9975;DHT22;5028;50.974;4.968;2023-09-19T02:25:52;14.40;99.90
9975;DHT22;5028;50.974;4.968;2023-09-19T02:28:22;14.30;99.90
9975;DHT22;5028;50.974;4.968;2023-09-19T02:30:53;14.30;99.90
9975;DHT22;5028;50.974;4.968;2023-09-19T02:33:22;14.30;99.90
9975;DHT22;5028;50.974;4.968;2023-09-19T02:35:55;14.30;99.90
9975;DHT22;5028;50.974;4.968;2023-09-19T02:38:24;14.30;99.90
9975;DHT22;5028;50.974;4.968;2023-09-19T02:40:53;14.30;99.90
9975;DHT22;5028;50.974;4.968;2023-09-19T02:43:23;14.30;99.90
9975;DHT22;5028;50.974;4.968;2023-09-19T02:45:54;14.30;99.90
9975;DHT22;5028;50.974;4.968;2023-09-19T02:48:25;14.30;99.90
9975;DHT22;5028;50.974;4.968;2023-09-19T02:50:56;14.30;99.90
9975;DHT22;5028;50.974;4.968;2023-09-19T02:53:25;14.30;99.90
9975;DHT22;5028;50.974;4.968;2023-09-19T02:55:55;14.30;99.90
9975;DHT22;5028;50.974;4.968;2023-09-19T02:58:24;14.30;99.90
9975;DHT22;5028;50.974;4.968;2023-09-19T03:00:54;14.30;99.90
9975;DHT22;5028;50.974;4.968;2023-09-19T03:03:23;14.40;99.90
9975;DHT22;5028;50.974;4.968;2023-09-19T03:05:52;14.40;99.90
9975;DHT22;5028;50.974;4.968;2023-09-19T03:08:21;14.40;99.90
9975;DHT22;5028;50.974;4.968;2023-09-19T03:10:50;14.40;99.90
9975;DHT22;5028;50.974;4.968;2023-09-19T03:13:18;14.40;99.90
9975;DHT22;5028;50.974;4.968;2023-09-19T03:15:47;14.50;99.90
9975;DHT22;5028;50.974;4.968;2023-09-19T03:18:19;14.40;99.90
9975;DHT22;5028;50.974;4.968;2023-09-19T03:20:52;14.40;99.90
9975;DHT22;5028;50.974;4.968;2023-09-19T03:23:22;14.40;99.90
9975;DHT22;5028;50.974;4.968;2023-09-19T03:25:51;14.40;99.90
9975;DHT22;5028;50.974;4.968;2023-09-19T03:28:19;14.40;99.90
9975;DHT22;5028;50.974;4.968;2023-09-19T03:31:00;14.40;99.90
9975;DHT22;5028;50.974;4.968;2023-09-19T03:33:31;14.40;99.90
9975;DHT22;5028;50.974;4.968;2023-09-19T03:36:00;14.50;99.90
9975;DHT22;5028;50.974;4.968;2023-09-19T03:38:32;14.50;99.90
9975;DHT22;5028;50.974;4.968;2023-09-19T03:41:02;14.50;99.90
9975;DHT22;5028;50.974;4.968;2023-09-19T03:43:32;14.50;99.90
9975;DHT22;5028;50.974;4.968;2023-09-19T03:46:01;14.50;99.90
9975;DHT22;5028;50.974;4.968;2023-09-19T03:48:33;14.50;99.90
9975;DHT22;5028;50.974;4.968;2023-09-19T03:51:01;14.50;99.90
9975;DHT22;5028;50.974;4.968;2023-09-19T03:53:30;14.40;99.90
9975;DHT22;5028;50.974;4.968;2023-09-19T03:55:59;14.40;99.90
9975;DHT22;5028;50.974;4.968;2023-09-19T03:58:28;14.40;99.90
9975;DHT22;5028;50.974;4.968;2023-09-19T04:00:57;14.40;99.90
9975;DHT22;5028;50.974;4.968;2023-09-19T04:03:26;14.40;99.90
9975;DHT22;5028;50.974;4.968;2023-09-19T04:06:04;14.40;99.90
9975;DHT22;5028;50.974;4.968;2023-09-19T04:08:33;14.50;99.90
9975;DHT22;5028;50.974;4.968;2023-09-19T04:11:02;14.50;99.90
9975;DHT22;5028;50.974;4.968;2023-09-19T04:13:30;14.50;99.90
9975;DHT22;5028;50.974;4.968;2023-09-19T04:15:59;14.50;99.90
9975;DHT22;5028;50.974;4.968;2023-09-19T04:18:27;14.50;99.90
9975;DHT22;5028;50.974;4.968;2023-09-19T04:20:58;14.50;99.90
9975;DHT22;5028;50.974;4.968;2023-09-19T04:23:30;14.50;99.90
9975;DHT22;5028;50.974;4.968;2023-09-19T04:25:59;14.40;99.90
9975;DHT22;5028;50.974;4.968;2023-09-19T04:28:27;14.50;99.90
9975;DHT22;5028;50.974;4.968;2023-09-19T04:30:56;14.40;99.90
9975;DHT22;5028;50.974;4.968;2023-09-19T04:33:25;14.40;99.90
9975;DHT22;5028;50.974;4.968;2023-09-19T04:35:54;14.40;99.90
9975;DHT22;5028;50.974;4.968;2023-09-19T04:38:30;14.30;99.90
9975;DHT22;5028;50.974;4.968;2023-09-19T04:40:58;14.30;99.90
9975;DHT22;5028;50.974;4.968;2023-09-19T04:43:27;14.30;99.90
9975;DHT22;5028;50.974;4.968;2023-09-19T04:45:55;14.30;99.90
9975;DHT22;5028;50.974;4.968;2023-09-19T04:48:30;14.30;99.90
9975;DHT22;5028;50.974;4.968;2023-09-19T04:50:59;14.20;99.90
9975;DHT22;5028;50.974;4.968;2023-09-19T04:53:27;14.20;99.90
9975;DHT22;5028;50.974;4.968;2023-09-19T04:55:57;14.20;99.90
9975;DHT22;5028;50.974;4.968;2023-09-19T04:58:26;14.20;99.90
9975;DHT22;5028;50.974;4.968;2023-09-19T05:00:54;14.10;99.90
9975;DHT22;5028;50.974;4.968;2023-09-19T05:03:23;14.10;99.90
9975;DHT22;5028;50.974;4.968;2023-09-19T05:05:53;14.10;99.90
9975;DHT22;5028;50.974;4.968;2023-09-19T05:08:22;14.10;99.90
9975;DHT22;5028;50.974;4.968;2023-09-19T05:10:51;14.10;99.90
9975;DHT22;5028;50.974;4.968;2023-09-19T05:13:22;14.10;99.90
9975;DHT22;5028;50.974;4.968;2023-09-19T05:15:51;14.10;99.90
9975;DHT22;5028;50.974;4.968;2023-09-19T05:18:20;14.10;99.90
9975;DHT22;5028;50.974;4.968;2023-09-19T05:20:49;14.00;99.90
9975;DHT22;5028;50.974;4.968;2023-09-19T05:23:18;14.00;99.90
9975;DHT22;5028;50.974;4.968;2023-09-19T05:25:48;14.00;99.90
9975;DHT22;5028;50.974;4.968;2023-09-19T05:28:17;14.00;99.90
9975;DHT22;5028;50.974;4.968;2023-09-19T05:30:47;14.00;99.90
9975;DHT22;5028;50.974;4.968;2023-09-19T05:33:16;14.00;99.90
9975;DHT22;5028;50.974;4.968;2023-09-19T05:35:45;14.00;99.90
9975;DHT22;5028;50.974;4.968;2023-09-19T05:38:16;14.00;99.90
9975;DHT22;5028;50.974;4.968;2023-09-19T05:40:46;14.00;99.90
9975;DHT22;5028;50.974;4.968;2023-09-19T05:43:15;14.00;99.90
9975;DHT22;5028;50.974;4.968;2023-09-19T05:45:43;14.00;99.90
9975;DHT22;5028;50.974;4.968;2023-09-19T05:48:15;14.00;99.90
9975;DHT22;5028;50.974;4.968;2023-09-19T05:50:44;14.00;99.90
9975;DHT22;5028;50.974;4.968;2023-09-19T05:53:14;14.00;99.90
9975;DHT22;5028;50.974;4.968;2023-09-19T05:55:43;14.00;99.90
9975;DHT22;5028;50.974;4.968;2023-09-19T05:58:12;14.00;99.90
9975;DHT22;5028;50.974;4.968;2023-09-19T06:00:42;14.00;99.90
9975;DHT22;5028;50.974;4.968;2023-09-19T06:03:11;14.10;99.90
9975;DHT22;5028;50.974;4.968;2023-09-19T06:05:42;14.10;99.90
9975;DHT22;5028;50.974;4.968;2023-09-19T06:08:13;14.10;99.90
9975;DHT22;5028;50.974;4.968;2023-09-19T06:10:41;14.10;99.90
9975;DHT22;5028;50.974;4.968;2023-09-19T06:13:10;14.10;99.90
9975;DHT22;5028;50.974;4.968;2023-09-19T06:15:39;14.10;99.90
9975;DHT22;5028;50.974;4.968;2023-09-19T06:18:11;14.10;99.90
9975;DHT22;5028;50.974;4.968;2023-09-19T06:20:43;14.10;99.90
9975;DHT22;5028;50.974;4.968;2023-09-19T06:23:12;14.20;99.90
9975;DHT22;5028;50.974;4.968;2023-09-19T06:25:41;14.20;99.90
9975;DHT22;5028;50.974;4.968;2023-09-19T06:28:10;14.20;99.90
9975;DHT22;5028;50.974;4.968;2023-09-19T06:30:40;14.30;99.90
9975;DHT22;5028;50.974;4.968;2023-09-19T06:33:08;14.40;99.90
9975;DHT22;5028;50.974;4.968;2023-09-19T06:35:39;14.40;99.90
9975;DHT22;5028;50.974;4.968;2023-09-19T06:38:11;14.40;99.90
9975;DHT22;5028;50.974;4.968;2023-09-19T06:40:40;14.50;99.90
9975;DHT22;5028;50.974;4.968;2023-09-19T06:43:10;14.50;99.90
9975;DHT22;5028;50.974;4.968;2023-09-19T06:45:39;14.60;99.90
9975;DHT22;5028;50.974;4.968;2023-09-19T06:48:08;14.60;99.90
9975;DHT22;5028;50.974;4.968;2023-09-19T06:50:37;14.60;99.90
9975;DHT22;5028;50.974;4.968;2023-09-19T06:53:10;14.60;99.90
9975;DHT22;5028;50.974;4.968;2023-09-19T06:55:38;14.60;99.90
9975;DHT22;5028;50.974;4.968;2023-09-19T06:58:07;14.70;99.90
9975;DHT22;5028;50.974;4.968;2023-09-19T07:00:37;14.70;99.90
9975;DHT22;5028;50.974;4.968;2023-09-19T07:03:06;14.70;99.90
9975;DHT22;5028;50.974;4.968;2023-09-19T07:05:39;14.80;99.90
9975;DHT22;5028;50.974;4.968;2023-09-19T07:08:11;14.80;99.90
9975;DHT22;5028;50.974;4.968;2023-09-19T07:10:40;14.90;99.90
9975;DHT22;5028;50.974;4.968;2023-09-19T07:13:16;14.90;99.90
9975;DHT22;5028;50.974;4.968;2023-09-19T07:15:45;14.90;99.90
9975;DHT22;5028;50.974;4.968;2023-09-19T07:18:18;15.00;99.90
9975;DHT22;5028;50.974;4.968;2023-09-19T07:20:47;15.00;99.90
9975;DHT22;5028;50.974;4.968;2023-09-19T07:23:21;15.10;99.90
9975;DHT22;5028;50.974;4.968;2023-09-19T07:25:50;15.10;99.90
9975;DHT22;5028;50.974;4.968;2023-09-19T07:28:20;15.10;99.90
9975;DHT22;5028;50.974;4.968;2023-09-19T07:30:50;15.10;99.90
9975;DHT22;5028;50.974;4.968;2023-09-19T07:33:19;15.20;99.90
9975;DHT22;5028;50.974;4.968;2023-09-19T07:35:48;15.30;99.90
9975;DHT22;5028;50.974;4.968;2023-09-19T07:38:19;15.30;99.90
9975;DHT22;5028;50.974;4.968;2023-09-19T07:40:49;15.30;99.90
9975;DHT22;5028;50.974;4.968;2023-09-19T07:43:18;15.40;99.90
9975;DHT22;5028;50.974;4.968;2023-09-19T07:45:47;15.40;99.90
9975;DHT22;5028;50.974;4.968;2023-09-19T07:48:16;15.50;99.90
9975;DHT22;5028;50.974;4.968;2023-09-19T07:50:45;15.50;99.90
9975;DHT22;5028;50.974;4.968;2023-09-19T07:53:15;15.60;99.90
9975;DHT22;5028;50.974;4.968;2023-09-19T07:55:45;15.70;99.90
9975;DHT22;5028;50.974;4.968;2023-09-19T07:58:17;15.70;99.90
9975;DHT22;5028;50.974;4.968;2023-09-19T08:00:46;15.80;99.90
9975;DHT22;5028;50.974;4.968;2023-09-19T08:03:17;15.80;99.90
9975;DHT22;5028;50.974;4.968;2023-09-19T08:05:47;15.80;99.90
9975;DHT22;5028;50.974;4.968;2023-09-19T08:08:16;15.80;99.90
9975;DHT22;5028;50.974;4.968;2023-09-19T08:10:44;15.80;99.90
9975;DHT22;5028;50.974;4.968;2023-09-19T08:13:17;15.90;99.90
9975;DHT22;5028;50.974;4.968;2023-09-19T08:15:46;15.90;99.90
9975;DHT22;5028;50.974;4.968;2023-09-19T08:18:15;15.90;99.90
9975;DHT22;5028;50.974;4.968;2023-09-19T08:20:49;15.90;99.90
9975;DHT22;5028;50.974;4.968;2023-09-19T08:23:18;16.00;99.90
9975;DHT22;5028;50.974;4.968;2023-09-19T08:25:48;16.00;99.90
9975;DHT22;5028;50.974;4.968;2023-09-19T08:28:20;16.10;99.90
9975;DHT22;5028;50.974;4.968;2023-09-19T08:30:51;16.20;99.90
9975;DHT22;5028;50.974;4.968;2023-09-19T08:33:22;16.30;99.90
9975;DHT22;5028;50.974;4.968;2023-09-19T08:35:55;16.30;99.90
9975;DHT22;5028;50.974;4.968;2023-09-19T08:38:24;16.30;99.90
9975;DHT22;5028;50.974;4.968;2023-09-19T08:40:57;16.40;99.90
9975;DHT22;5028;50.974;4.968;2023-09-19T08:43:30;16.40;99.90
9975;DHT22;5028;50.974;4.968;2023-09-19T08:46:09;16.40;99.90
9975;DHT22;5028;50.974;4.968;2023-09-19T08:48:42;16.50;99.90
9975;DHT22;5028;50.974;4.968;2023-09-19T08:51:18;16.60;99.90
9975;DHT22;5028;50.974;4.968;2023-09-19T08:53:51;16.70;99.90
9975;DHT22;5028;50.974;4.968;2023-09-19T08:56:22;16.80;99.90
9975;DHT22;5028;50.974;4.968;2023-09-19T08:58:57;16.80;99.90
9975;DHT22;5028;50.974;4.968;2023-09-19T09:01:31;16.90;99.90
9975;DHT22;5028;50.974;4.968;2023-09-19T09:04:02;16.80;99.90
9975;DHT22;5028;50.974;4.968;2023-09-19T09:06:31;16.80;99.90
9975;DHT22;5028;50.974;4.968;2023-09-19T09:09:01;16.90;99.90
9975;DHT22;5028;50.974;4.968;2023-09-19T09:11:33;17.00;99.90
9975;DHT22;5028;50.974;4.968;2023-09-19T09:14:03;17.20;99.90
9975;DHT22;5028;50.974;4.968;2023-09-19T09:16:32;17.30;99.90
9975;DHT22;5028;50.974;4.968;2023-09-19T09:19:02;17.40;99.90
9975;DHT22;5028;50.974;4.968;2023-09-19T09:21:31;17.50;99.90
9975;DHT22;5028;50.974;4.968;2023-09-19T09:24:28;17.70;99.90
9975;DHT22;5028;50.974;4.968;2023-09-19T09:27:03;17.90;99.90
9975;DHT22;5028;50.974;4.968;2023-09-19T09:29:48;18.10;99.90
9975;DHT22;5028;50.974;4.968;2023-09-19T09:32:20;18.20;99.90
9975;DHT22;5028;50.974;4.968;2023-09-19T09:34:52;18.30;99.90
9975;DHT22;5028;50.974;4.968;2023-09-19T09:37:26;18.30;99.90
9975;DHT22;5028;50.974;4.968;2023-09-19T09:39:59;18.30;99.90
9975;DHT22;5028;50.974;4.968;2023-09-19T09:42:46;18.30;99.90
9975;DHT22;5028;50.974;4.968;2023-09-19T09:45:20;18.20;99.90
9975;DHT22;5028;50.974;4.968;2023-09-19T09:47:55;18.30;99.90
9975;DHT22;5028;50.974;4.968;2023-09-19T09:50:25;18.40;99.90
9975;DHT22;5028;50.974;4.968;2023-09-19T09:52:56;18.40;99.90
9975;DHT22;5028;50.974;4.968;2023-09-19T09:55:58;18.60;99.90
9975;DHT22;5028;50.974;4.968;2023-09-19T09:58:28;18.70;99.90
9975;DHT22;5028;50.974;4.968;2023-09-19T10:01:01;18.70;99.90
9975;DHT22;5028;50.974;4.968;2023-09-19T10:03:37;18.70;99.90
9975;DHT22;5028;50.974;4.968;2023-09-19T10:06:13;18.70;99.90
9975;DHT22;5028;50.974;4.968;2023-09-19T10:08:59;18.70;99.90
9975;DHT22;5028;50.974;4.968;2023-09-19T10:11:43;18.90;99.90
9975;DHT22;5028;50.974;4.968;2023-09-19T10:14:15;18.90;99.90
9975;DHT22;5028;50.974;4.968;2023-09-19T10:16:49;18.90;99.90
9975;DHT22;5028;50.974;4.968;2023-09-19T10:19:21;18.90;99.90
9975;DHT22;5028;50.974;4.968;2023-09-19T10:21:54;18.90;99.90
9975;DHT22;5028;50.974;4.968;2023-09-19T10:24:26;18.90;99.90
9975;DHT22;5028;50.974;4.968;2023-09-19T10:26:55;18.90;99.90
9975;DHT22;5028;50.974;4.968;2023-09-19T10:29:27;19.20;99.90
9975;DHT22;5028;50.974;4.968;2023-09-19T10:32:00;19.40;99.90
9975;DHT22;5028;50.974;4.968;2023-09-19T10:34:32;19.60;99.90
9975;DHT22;5028;50.974;4.968;2023-09-19T10:37:03;19.60;99.90
9975;DHT22;5028;50.974;4.968;2023-09-19T10:39:33;19.70;99.90
9975;DHT22;5028;50.974;4.968;2023-09-19T10:42:03;19.90;99.90
9975;DHT22;5028;50.974;4.968;2023-09-19T10:44:33;20.20;99.90
9975;DHT22;5028;50.974;4.968;2023-09-19T10:47:04;20.30;99.90
9975;DHT22;5028;50.974;4.968;2023-09-19T10:49:34;20.40;99.90
9975;DHT22;5028;50.974;4.968;2023-09-19T10:52:06;20.70;99.90
9975;DHT22;5028;50.974;4.968;2023-09-19T10:54:39;20.70;99.90
9975;DHT22;5028;50.974;4.968;2023-09-19T10:57:19;20.70;99.90
9975;DHT22;5028;50.974;4.968;2023-09-19T11:00:05;20.70;99.90
9975;DHT22;5028;50.974;4.968;2023-09-19T11:03:18;20.90;99.90
9975;DHT22;5028;50.974;4.968;2023-09-19T11:06:03;21.00;99.90
9975;DHT22;5028;50.974;4.968;2023-09-19T11:08:55;21.10;99.90
9975;DHT22;5028;50.974;4.968;2023-09-19T11:11:46;21.10;99.90
9975;DHT22;5028;50.974;4.968;2023-09-19T11:14:40;21.10;99.90
9975;DHT22;5028;50.974;4.968;2023-09-19T11:17:31;21.10;99.90
9975;DHT22;5028;50.974;4.968;2023-09-19T11:20:21;21.20;99.90
9975;DHT22;5028;50.974;4.968;2023-09-19T11:23:21;21.20;99.90
9975;DHT22;5028;50.974;4.968;2023-09-19T11:25:54;21.30;99.90
9975;DHT22;5028;50.974;4.968;2023-09-19T11:28:33;21.30;99.90
9975;DHT22;5028;50.974;4.968;2023-09-19T11:34:46;21.40;99.90
9975;DHT22;5028;50.974;4.968;2023-09-19T11:40:36;21.30;99.90
9975;DHT22;5028;50.974;4.968;2023-09-19T11:43:32;21.50;99.90
9975;DHT22;5028;50.974;4.968;2023-09-19T11:46:07;21.80;99.90
9975;DHT22;5028;50.974;4.968;2023-09-19T11:48:39;21.90;99.90
9975;DHT22;5028;50.974;4.968;2023-09-19T11:51:12;22.10;99.90
9975;DHT22;5028;50.974;4.968;2023-09-19T11:53:50;21.90;99.90
9975;DHT22;5028;50.974;4.968;2023-09-19T11:56:22;21.60;99.90
9975;DHT22;5028;50.974;4.968;2023-09-19T11:58:54;21.40;99.90
9975;DHT22;5028;50.974;4.968;2023-09-19T12:01:25;21.30;99.90
9975;DHT22;5028;50.974;4.968;2023-09-19T12:04:00;21.40;99.90
9975;DHT22;5028;50.974;4.968;2023-09-19T12:06:30;21.50;99.90
9975;DHT22;5028;50.974;4.968;2023-09-19T12:08:59;21.50;99.90
9975;DHT22;5028;50.974;4.968;2023-09-19T12:11:32;21.40;99.90
9975;DHT22;5028;50.974;4.968;2023-09-19T12:14:02;21.40;99.90
9975;DHT22;5028;50.974;4.968;2023-09-19T12:16:31;21.50;99.90
9975;DHT22;5028;50.974;4.968;2023-09-19T12:19:19;21.50;99.90
9975;DHT22;5028;50.974;4.968;2023-09-19T12:22:00;21.20;99.90
9975;DHT22;5028;50.974;4.968;2023-09-19T12:24:33;21.10;99.90
9975;DHT22;5028;50.974;4.968;2023-09-19T12:27:07;21.10;99.90
9975;DHT22;5028;50.974;4.968;2023-09-19T12:29:43;21.00;99.90
9975;DHT22;5028;50.974;4.968;2023-09-19T12:32:12;20.80;99.90
9975;DHT22;5028;50.974;4.968;2023-09-19T12:34:50;20.60;99.90
9975;DHT22;5028;50.974;4.968;2023-09-19T12:37:22;20.50;99.90
9975;DHT22;5028;50.974;4.968;2023-09-19T12:40:04;20.40;99.90
9975;DHT22;5028;50.974;4.968;2023-09-19T12:42:45;20.20;99.90
9975;DHT22;5028;50.974;4.968;2023-09-19T12:45:15;20.20;99.90
9975;DHT22;5028;50.974;4.968;2023-09-19T12:48:17;20.40;99.90
9975;DHT22;5028;50.974;4.968;2023-09-19T12:51:01;20.60;99.90
9975;DHT22;5028;50.974;4.968;2023-09-19T12:53:36;20.50;99.90
9975;DHT22;5028;50.974;4.968;2023-09-19T12:56:09;20.50;99.90
9975;DHT22;5028;50.974;4.968;2023-09-19T12:58:54;20.40;99.90
9975;DHT22;5028;50.974;4.968;2023-09-19T13:01:24;20.40;99.90
9975;DHT22;5028;50.974;4.968;2023-09-19T13:04:12;20.50;99.90
9975;DHT22;5028;50.974;4.968;2023-09-19T13:06:42;20.50;99.90
9975;DHT22;5028;50.974;4.968;2023-09-19T13:09:11;20.70;99.90
9975;DHT22;5028;50.974;4.968;2023-09-19T13:11:42;20.80;99.90
9975;DHT22;5028;50.974;4.968;2023-09-19T13:14:17;20.90;99.90
9975;DHT22;5028;50.974;4.968;2023-09-19T13:16:57;20.90;99.90
9975;DHT22;5028;50.974;4.968;2023-09-19T13:19:38;20.90;99.90
9975;DHT22;5028;50.974;4.968;2023-09-19T13:22:42;20.90;99.90
9975;DHT22;5028;50.974;4.968;2023-09-19T13:25:14;20.90;99.90
9975;DHT22;5028;50.974;4.968;2023-09-19T13:27:47;20.70;99.90
9975;DHT22;5028;50.974;4.968;2023-09-19T13:30:20;20.70;99.90
9975;DHT22;5028;50.974;4.968;2023-09-19T13:32:50;20.70;99.90
9975;DHT22;5028;50.974;4.968;2023-09-19T13:35:20;20.50;99.90
9975;DHT22;5028;50.974;4.968;2023-09-19T13:37:48;20.40;99.90
9975;DHT22;5028;50.974;4.968;2023-09-19T13:40:19;20.10;99.90
9975;DHT22;5028;50.974;4.968;2023-09-19T13:42:47;20.10;99.90
9975;DHT22;5028;50.974;4.968;2023-09-19T13:45:17;20.10;99.90
9975;DHT22;5028;50.974;4.968;2023-09-19T13:47:51;20.00;99.90
9975;DHT22;5028;50.974;4.968;2023-09-19T13:50:19;20.00;99.90
9975;DHT22;5028;50.974;4.968;2023-09-19T13:52:51;20.00;99.90
9975;DHT22;5028;50.974;4.968;2023-09-19T13:55:20;20.00;99.90
9975;DHT22;5028;50.974;4.968;2023-09-19T13:57:49;19.90;99.90
9975;DHT22;5028;50.974;4.968;2023-09-19T14:00:21;19.80;99.90
9975;DHT22;5028;50.974;4.968;2023-09-19T14:02:52;19.80;99.90
9975;DHT22;5028;50.974;4.968;2023-09-19T14:05:21;19.70;99.90
9975;DHT22;5028;50.974;4.968;2023-09-19T14:07:50;19.70;99.90
9975;DHT22;5028;50.974;4.968;2023-09-19T14:10:19;19.80;99.90
9975;DHT22;5028;50.974;4.968;2023-09-19T14:12:47;19.80;99.90
9975;DHT22;5028;50.974;4.968;2023-09-19T14:15:17;19.80;99.90
9975;DHT22;5028;50.974;4.968;2023-09-19T14:17:45;19.90;99.90
9975;DHT22;5028;50.974;4.968;2023-09-19T14:20:16;19.90;99.90
9975;DHT22;5028;50.974;4.968;2023-09-19T14:22:45;19.90;99.90
9975;DHT22;5028;50.974;4.968;2023-09-19T14:25:13;20.00;99.90
9975;DHT22;5028;50.974;4.968;2023-09-19T14:27:42;20.10;99.90
9975;DHT22;5028;50.974;4.968;2023-09-19T14:30:12;20.20;99.90
9975;DHT22;5028;50.974;4.968;2023-09-19T14:32:41;20.20;99.90
9975;DHT22;5028;50.974;4.968;2023-09-19T14:35:09;20.10;99.90
9975;DHT22;5028;50.974;4.968;2023-09-19T14:37:43;20.00;99.90
9975;DHT22;5028;50.974;4.968;2023-09-19T14:40:13;19.90;99.90
9975;DHT22;5028;50.974;4.968;2023-09-19T14:42:44;19.80;99.90
9975;DHT22;5028;50.974;4.968;2023-09-19T14:45:16;19.80;99.90
9975;DHT22;5028;50.974;4.968;2023-09-19T14:47:46;19.80;99.90
9975;DHT22;5028;50.974;4.968;2023-09-19T14:50:15;19.80;99.90
9975;DHT22;5028;50.974;4.968;2023-09-19T14:52:46;19.80;99.90
9975;DHT22;5028;50.974;4.968;2023-09-19T14:55:16;19.80;99.90
9975;DHT22;5028;50.974;4.968;2023-09-19T14:57:49;19.80;99.90
9975;DHT22;5028;50.974;4.968;2023-09-19T15:00:18;19.80;99.90
9975;DHT22;5028;50.974;4.968;2023-09-19T15:02:48;19.80;99.90
9975;DHT22;5028;50.974;4.968;2023-09-19T15:05:17;19.90;99.90
9975;DHT22;5028;50.974;4.968;2023-09-19T15:07:49;19.90;99.90
9975;DHT22;5028;50.974;4.968;2023-09-19T15:10:18;20.00;99.90
9975;DHT22;5028;50.974;4.968;2023-09-19T15:12:47;20.00;99.90
9975;DHT22;5028;50.974;4.968;2023-09-19T15:15:16;20.10;99.90
9975;DHT22;5028;50.974;4.968;2023-09-19T15:17:44;20.10;99.90
9975;DHT22;5028;50.974;4.968;2023-09-19T15:20:14;20.00;99.90
9975;DHT22;5028;50.974;4.968;2023-09-19T15:22:45;20.10;99.90
9975;DHT22;5028;50.974;4.968;2023-09-19T15:25:15;20.10;99.90
9975;DHT22;5028;50.974;4.968;2023-09-19T15:27:44;20.10;99.90
9975;DHT22;5028;50.974;4.968;2023-09-19T15:30:13;19.90;99.90
9975;DHT22;5028;50.974;4.968;2023-09-19T15:32:42;19.80;99.90
9975;DHT22;5028;50.974;4.968;2023-09-19T15:35:11;19.70;99.90
9975;DHT22;5028;50.974;4.968;2023-09-19T15:37:41;19.60;99.90
9975;DHT22;5028;50.974;4.968;2023-09-19T15:40:10;19.50;99.90
9975;DHT22;5028;50.974;4.968;2023-09-19T15:42:42;19.50;99.90
9975;DHT22;5028;50.974;4.968;2023-09-19T15:45:11;19.40;99.90
9975;DHT22;5028;50.974;4.968;2023-09-19T15:47:39;19.30;99.90
9975;DHT22;5028;50.974;4.968;2023-09-19T15:50:10;19.30;99.90
9975;DHT22;5028;50.974;4.968;2023-09-19T15:52:40;19.30;99.90
9975;DHT22;5028;50.974;4.968;2023-09-19T15:55:09;19.30;99.90
9975;DHT22;5028;50.974;4.968;2023-09-19T15:57:38;19.30;99.90
9975;DHT22;5028;50.974;4.968;2023-09-19T16:00:10;19.20;99.90
9975;DHT22;5028;50.974;4.968;2023-09-19T16:02:46;19.20;99.90
9975;DHT22;5028;50.974;4.968;2023-09-19T16:05:17;19.20;99.90
9975;DHT22;5028;50.974;4.968;2023-09-19T16:07:46;19.10;99.90
9975;DHT22;5028;50.974;4.968;2023-09-19T16:10:15;19.10;99.90
9975;DHT22;5028;50.974;4.968;2023-09-19T16:12:44;19.10;99.90
9975;DHT22;5028;50.974;4.968;2023-09-19T16:15:14;19.10;99.90
9975;DHT22;5028;50.974;4.968;2023-09-19T16:17:43;19.00;99.90
9975;DHT22;5028;50.974;4.968;2023-09-19T16:20:12;19.00;99.90
9975;DHT22;5028;50.974;4.968;2023-09-19T16:22:45;19.00;99.90
9975;DHT22;5028;50.974;4.968;2023-09-19T16:25:15;19.00;99.90
9975;DHT22;5028;50.974;4.968;2023-09-19T16:27:43;18.90;99.90
9975;DHT22;5028;50.974;4.968;2023-09-19T16:30:14;18.90;99.90
9975;DHT22;5028;50.974;4.968;2023-09-19T16:32:45;18.90;99.90
9975;DHT22;5028;50.974;4.968;2023-09-19T16:35:14;18.90;99.90
9975;DHT22;5028;50.974;4.968;2023-09-19T16:37:43;18.90;99.90
9975;DHT22;5028;50.974;4.968;2023-09-19T16:40:14;18.80;99.90